createdAt,value
2019-05-15T00:01:40.960Z,12.46
2019-05-15T00:04:09.784Z,12.54
2019-05-15T00:06:39.207Z,12.59
2019-05-15T00:09:08.775Z,12.56
2019-05-15T00:11:39.010Z,12.44
2019-05-15T00:14:08.768Z,12.33
2019-05-15T00:16:38.664Z,12.15
2019-05-15T00:19:08.782Z,12.17
2019-05-15T00:21:38.459Z,12.08
2019-05-15T00:24:12.708Z,11.87
2019-05-15T00:26:38.777Z,11.85
2019-05-15T00:29:15.640Z,11.59
2019-05-15T00:31:38.992Z,11.49
2019-05-15T00:34:12.679Z,11.52
2019-05-15T00:36:39.214Z,11.60
2019-05-15T00:39:08.642Z,11.64
2019-05-15T00:41:50.874Z,11.52
2019-05-15T00:44:09.300Z,11.44
2019-05-15T00:46:39.360Z,11.55
2019-05-15T00:49:08.816Z,11.46
2019-05-15T00:51:38.997Z,11.47
2019-05-15T00:54:08.699Z,11.43
2019-05-15T00:56:39.134Z,11.46
2019-05-15T00:59:08.533Z,11.61
2019-05-15T01:01:38.326Z,11.61
2019-05-15T01:04:08.164Z,11.68
2019-05-15T01:06:39.051Z,11.72
2019-05-15T01:09:08.532Z,11.55
2019-05-15T01:11:38.278Z,11.36
2019-05-15T01:14:11.896Z,11.29
2019-05-15T01:16:41.031Z,11.36
2019-05-15T01:19:10.354Z,11.22
2019-05-15T01:21:39.592Z,11.40
2019-05-15T01:24:08.833Z,11.57
2019-05-15T01:26:38.537Z,11.51
2019-05-15T01:29:09.041Z,11.40
2019-05-15T01:31:38.444Z,11.31
2019-05-15T01:34:09.030Z,11.26
2019-05-15T01:36:38.447Z,11.13
2019-05-15T01:39:08.066Z,11.21
2019-05-15T01:41:38.641Z,11.14
2019-05-15T01:44:08.799Z,11.29
2019-05-15T01:46:39.340Z,11.31
2019-05-15T01:49:08.788Z,11.41
2019-05-15T01:51:38.478Z,11.55
2019-05-15T01:54:09.167Z,11.64
2019-05-15T01:56:38.900Z,11.63
2019-05-15T01:59:08.659Z,11.25
2019-05-15T02:01:39.168Z,11.10
2019-05-15T02:04:08.814Z,11.04
2019-05-15T02:06:39.061Z,11.18
2019-05-15T02:09:08.719Z,11.18
2019-05-15T02:11:38.343Z,11.18
2019-05-15T02:14:08.354Z,11.17
2019-05-15T02:16:39.292Z,11.30
2019-05-15T02:19:09.063Z,11.32
2019-05-15T02:21:38.468Z,11.40
2019-05-15T02:24:08.016Z,11.43
2019-05-15T02:26:38.813Z,11.45
2019-05-15T02:29:13.208Z,11.33
2019-05-15T02:31:39.594Z,11.05
2019-05-15T02:34:10.079Z,10.84
2019-05-15T02:36:40.266Z,10.79
2019-05-15T02:39:09.913Z,10.77
2019-05-15T02:41:39.939Z,10.71
2019-05-15T02:44:10.915Z,10.96
2019-05-15T02:46:40.172Z,11.11
2019-05-15T02:49:09.485Z,11.30
2019-05-15T02:51:39.913Z,11.30
2019-05-15T02:54:10.411Z,11.35
2019-05-15T02:56:40.678Z,11.02
2019-05-15T02:59:09.912Z,10.93
2019-05-15T03:01:40.548Z,10.90
2019-05-15T03:04:10.120Z,11.00
2019-05-15T03:06:39.371Z,11.13
2019-05-15T03:09:09.466Z,11.09
2019-05-15T03:11:40.914Z,10.99
2019-05-15T03:14:10.231Z,11.06
2019-05-15T03:16:39.787Z,11.15
2019-05-15T03:19:09.982Z,11.36
2019-05-15T03:21:39.568Z,11.45
2019-05-15T03:24:10.115Z,11.55
2019-05-15T03:26:39.827Z,11.48
2019-05-15T03:29:09.732Z,11.24
2019-05-15T03:31:57.662Z,11.30
2019-05-15T03:34:20.822Z,11.42
2019-05-15T03:36:45.052Z,11.64
2019-05-15T03:39:12.258Z,11.53
2019-05-15T03:41:41.527Z,11.20
2019-05-15T03:44:10.762Z,11.29
2019-05-15T03:46:40.164Z,11.39
2019-05-15T03:49:09.576Z,11.45
2019-05-15T03:51:41.008Z,11.65
2019-05-15T03:54:09.674Z,11.68
2019-05-15T03:56:39.602Z,11.72
2019-05-15T03:59:09.592Z,11.78
2019-05-15T04:01:43.678Z,11.51
2019-05-15T04:04:10.041Z,11.21
2019-05-15T04:06:39.415Z,11.05
2019-05-15T04:09:09.653Z,11.03
2019-05-15T04:11:39.272Z,10.96
2019-05-15T04:14:10.153Z,11.15
2019-05-15T04:16:39.570Z,11.42
2019-05-15T04:19:09.889Z,11.21
2019-05-15T04:21:44.085Z,11.00
2019-05-15T04:24:10.392Z,11.01
2019-05-15T04:26:41.529Z,11.20
2019-05-15T04:29:11.059Z,11.38
2019-05-15T04:31:51.683Z,11.62
2019-05-15T04:34:11.249Z,11.57
2019-05-15T04:36:44.312Z,11.57
2019-05-15T04:39:11.363Z,11.76
2019-05-15T04:41:40.635Z,11.98
2019-05-15T04:44:12.555Z,12.10
2019-05-15T04:46:41.851Z,12.27
2019-05-15T04:49:11.061Z,12.26
2019-05-15T04:51:40.476Z,12.21
2019-05-15T04:54:09.969Z,12.26
2019-05-15T04:56:40.043Z,12.24
2019-05-15T04:59:10.397Z,12.23
2019-05-15T05:01:40.424Z,12.31
2019-05-15T05:04:10.236Z,12.31
2019-05-15T05:06:39.534Z,12.22
2019-05-15T05:09:09.362Z,12.11
2019-05-15T05:11:38.950Z,12.10
2019-05-15T05:14:08.634Z,11.99
2019-05-15T05:16:39.216Z,11.98
2019-05-15T05:19:09.185Z,11.93
2019-05-15T05:21:38.669Z,11.71
2019-05-15T05:24:08.370Z,11.65
2019-05-15T05:26:38.257Z,11.74
2019-05-15T05:29:08.468Z,11.57
2019-05-15T05:31:39.171Z,11.88
2019-05-15T05:34:08.753Z,11.96
2019-05-15T05:36:38.628Z,12.17
2019-05-15T05:39:09.620Z,12.46
2019-05-15T05:41:39.351Z,12.85
2019-05-15T05:44:08.595Z,13.13
2019-05-15T05:46:39.799Z,13.26
2019-05-15T05:49:09.332Z,13.25
2019-05-15T05:51:38.807Z,13.26
2019-05-15T05:54:08.502Z,13.38
2019-05-15T05:56:38.089Z,13.40
2019-05-15T05:59:09.415Z,13.48
2019-05-15T06:01:43.732Z,13.53
2019-05-15T06:04:09.148Z,13.77
2019-05-15T06:06:38.576Z,13.92
2019-05-15T06:09:09.205Z,13.99
2019-05-15T06:11:38.773Z,13.93
2019-05-15T06:14:08.777Z,14.08
2019-05-15T06:16:38.895Z,14.22
2019-05-15T06:19:08.384Z,14.39
2019-05-15T06:21:46.567Z,14.47
2019-05-15T06:24:13.245Z,14.56
2019-05-15T06:26:39.791Z,14.14
2019-05-15T06:29:09.055Z,13.87
2019-05-15T06:31:38.811Z,13.45
2019-05-15T06:34:08.418Z,13.54
2019-05-15T06:36:39.293Z,13.79
2019-05-15T06:39:08.650Z,13.89
2019-05-15T06:41:39.017Z,13.99
2019-05-15T06:44:08.454Z,13.83
2019-05-15T06:46:39.331Z,13.71
2019-05-15T06:49:08.741Z,13.83
2019-05-15T06:51:38.047Z,14.19
2019-05-15T06:54:08.729Z,14.71
2019-05-15T06:56:38.853Z,14.42
2019-05-15T06:59:08.922Z,14.16
2019-05-15T07:01:38.638Z,14.17
2019-05-15T07:04:08.492Z,14.24
2019-05-15T07:06:38.212Z,14.60
2019-05-15T07:09:09.456Z,14.71
2019-05-15T07:11:38.968Z,14.18
2019-05-15T07:14:08.874Z,14.13
2019-05-15T07:16:41.556Z,14.43
2019-05-15T07:19:10.791Z,14.36
2019-05-15T07:21:40.033Z,14.27
2019-05-15T07:24:09.440Z,14.60
2019-05-15T07:26:39.158Z,14.32
2019-05-15T07:29:08.610Z,14.37
2019-05-15T07:31:38.419Z,14.33
2019-05-15T07:34:08.382Z,14.86
2019-05-15T07:36:39.064Z,14.88
2019-05-15T07:39:09.139Z,14.89
2019-05-15T07:41:39.139Z,14.66
2019-05-15T07:44:08.729Z,14.78
2019-05-15T07:46:38.378Z,15.29
2019-05-15T07:49:09.041Z,15.94
2019-05-15T07:51:38.531Z,15.90
2019-05-15T07:54:09.109Z,15.64
2019-05-15T07:56:38.630Z,15.63
2019-05-15T07:59:08.263Z,15.84
2019-05-15T08:01:38.592Z,15.89
2019-05-15T08:04:22.802Z,16.14
2019-05-15T08:06:39.057Z,16.81
2019-05-15T08:09:08.626Z,17.07
2019-05-15T08:11:39.082Z,17.11
2019-05-15T08:14:09.067Z,17.99
2019-05-15T08:16:39.563Z,18.44
2019-05-15T08:19:09.235Z,19.10
2019-05-15T08:21:38.757Z,19.51
2019-05-15T08:24:08.596Z,19.54
2019-05-15T08:26:39.990Z,19.57
2019-05-15T08:29:08.938Z,19.46
2019-05-15T08:31:38.882Z,19.89
2019-05-15T08:34:15.169Z,20.22
2019-05-15T08:36:39.465Z,20.42
2019-05-15T08:39:08.783Z,20.80
2019-05-15T08:41:39.127Z,20.95
2019-05-15T08:44:08.832Z,21.05
2019-05-15T08:46:38.794Z,20.15
2019-05-15T08:49:09.135Z,20.11
2019-05-15T08:51:38.640Z,19.87
2019-05-15T08:54:08.537Z,19.57
2019-05-15T08:56:39.407Z,19.25
2019-05-15T08:59:09.021Z,19.90
2019-05-15T09:01:38.461Z,20.01
2019-05-15T09:04:09.001Z,19.78
2019-05-15T09:06:41.290Z,20.77
2019-05-15T09:09:09.779Z,21.33
2019-05-15T09:11:39.545Z,21.68
2019-05-15T09:14:09.122Z,21.97
2019-05-15T09:16:38.872Z,22.01
2019-05-15T09:19:08.497Z,22.31
2019-05-15T09:21:38.763Z,21.75
2019-05-15T09:24:09.344Z,21.96
2019-05-15T09:26:40.336Z,22.11
2019-05-15T09:29:09.716Z,22.39
2019-05-15T09:31:39.299Z,22.79
2019-05-15T09:34:09.227Z,23.02
2019-05-15T09:36:42.355Z,22.88
2019-05-15T09:39:13.137Z,23.41
2019-05-15T09:41:40.489Z,23.31
2019-05-15T09:44:09.722Z,22.89
2019-05-15T09:46:38.998Z,23.50
2019-05-15T09:49:08.804Z,23.27
2019-05-15T09:51:38.622Z,23.27
2019-05-15T09:54:08.310Z,22.91
2019-05-15T09:56:38.494Z,23.02
2019-05-15T09:59:08.826Z,22.66
2019-05-15T10:01:39.499Z,23.00
2019-05-15T10:04:09.329Z,23.21
2019-05-15T10:06:58.620Z,23.01
2019-05-15T10:09:28.441Z,23.07
2019-05-15T10:11:58.082Z,23.05
2019-05-15T10:14:29.812Z,22.81
2019-05-15T10:16:59.271Z,22.60
2019-05-15T10:19:29.047Z,22.73
2019-05-15T10:21:59.573Z,22.66
2019-05-15T10:24:28.980Z,22.64
2019-05-15T10:26:58.221Z,22.33
2019-05-15T10:29:28.117Z,22.67
2019-05-15T10:31:57.754Z,22.79
2019-05-15T10:34:28.903Z,22.61
2019-05-15T10:36:58.939Z,23.12
2019-05-15T10:39:28.870Z,23.37
2019-05-15T10:41:58.317Z,23.49
2019-05-15T10:44:28.545Z,24.21
2019-05-15T10:46:58.569Z,24.02
2019-05-15T10:49:28.391Z,24.14
2019-05-15T10:51:57.674Z,23.97
2019-05-15T10:54:29.147Z,24.31
2019-05-15T10:57:00.502Z,24.46
2019-05-15T10:59:28.702Z,24.30
2019-05-15T11:01:59.119Z,23.88
2019-05-15T11:04:28.910Z,23.92
2019-05-15T11:06:58.433Z,23.75
2019-05-15T11:09:28.700Z,23.85
2019-05-15T11:11:58.457Z,23.66
2019-05-15T11:14:28.650Z,23.78
2019-05-15T11:16:58.941Z,24.02
2019-05-15T11:19:35.594Z,24.46
2019-05-15T11:21:59.595Z,24.63
2019-05-15T11:24:32.227Z,24.61
2019-05-15T11:26:59.668Z,24.43
2019-05-15T11:29:29.117Z,24.60
2019-05-15T11:31:58.352Z,24.60
2019-05-15T11:34:29.035Z,24.76
2019-05-15T11:36:59.320Z,24.79
2019-05-15T11:39:29.007Z,24.75
2019-05-15T11:41:58.456Z,24.64
2019-05-15T11:44:28.303Z,24.16
2019-05-15T11:46:58.630Z,24.52
2019-05-15T11:49:28.994Z,24.19
2019-05-15T11:52:00.518Z,24.13
2019-05-15T11:54:29.388Z,24.69
2019-05-15T11:56:59.674Z,24.55
2019-05-15T11:59:30.052Z,24.18
2019-05-15T12:01:59.589Z,23.62
2019-05-15T12:04:33.794Z,23.38
2019-05-15T12:07:02.648Z,22.67
2019-05-15T12:09:30.676Z,22.02
2019-05-15T12:11:59.907Z,21.04
2019-05-15T12:14:29.776Z,20.37
2019-05-15T12:17:06.902Z,19.72
2019-05-15T12:19:29.992Z,19.23
2019-05-15T12:21:59.974Z,18.68
2019-05-15T12:24:35.227Z,18.13
2019-05-15T12:27:13.659Z,17.56
2019-05-15T12:29:31.553Z,17.07
2019-05-15T12:32:20.114Z,16.73
2019-05-15T12:34:31.630Z,16.73
2019-05-15T12:37:01.300Z,16.60
2019-05-15T12:39:30.675Z,16.85
2019-05-15T13:02:05.371Z,15.58
2019-05-15T13:04:34.594Z,15.57
2019-05-15T13:07:12.835Z,15.35
2019-05-15T13:09:34.783Z,15.18
2019-05-15T13:12:04.013Z,14.80
2019-05-15T13:14:33.284Z,14.62
2019-05-15T13:17:02.515Z,14.35
2019-05-15T13:19:31.757Z,14.23
2019-05-15T13:22:01.039Z,14.15
2019-05-15T13:24:30.272Z,13.96
2019-05-15T13:26:59.525Z,13.91
2019-05-15T13:29:29.131Z,13.83
2019-05-15T13:31:58.611Z,14.49
2019-05-15T13:34:30.716Z,14.34
2019-05-15T13:36:59.241Z,14.05
2019-05-15T13:39:28.965Z,13.89
2019-05-15T13:41:58.541Z,13.89
2019-05-15T13:44:29.359Z,15.01
2019-05-15T13:46:58.950Z,16.41
2019-05-15T13:49:28.293Z,17.51
2019-05-15T13:51:59.339Z,18.11
2019-05-15T13:54:28.771Z,18.87
2019-05-15T13:56:58.346Z,19.18
2019-05-15T13:59:28.654Z,18.39
2019-05-15T14:01:59.462Z,19.06
2019-05-15T14:04:29.872Z,20.20
2019-05-15T14:07:01.060Z,20.43
2019-05-15T14:09:34.105Z,20.10
2019-05-15T14:12:04.524Z,19.13
2019-05-15T14:14:34.143Z,18.53
2019-05-15T14:17:04.069Z,17.01
2019-05-15T14:19:35.167Z,17.65
2019-05-15T14:22:23.159Z,18.97
2019-05-15T14:24:53.732Z,19.67
2019-05-15T14:27:24.448Z,20.00
2019-05-15T14:29:54.741Z,20.46
2019-05-15T14:32:35.411Z,20.66
2019-05-15T14:35:02.745Z,20.05
2019-05-15T14:37:44.659Z,19.10
2019-05-15T14:40:17.764Z,19.26
2019-05-15T14:42:52.515Z,20.07
2019-05-15T14:45:27.672Z,19.47
2019-05-15T14:47:58.174Z,18.92
2019-05-15T14:50:28.371Z,19.11
2019-05-15T14:52:58.548Z,20.59
2019-05-15T14:55:33.770Z,20.36
2019-05-15T14:57:59.202Z,19.75
2019-05-15T15:00:34.401Z,19.29
2019-05-15T15:02:59.840Z,20.11
2019-05-15T15:05:29.597Z,20.98
2019-05-15T15:07:58.836Z,20.72
2019-05-15T15:10:29.304Z,19.91
2019-05-15T15:12:58.820Z,19.50
2019-05-15T15:15:28.722Z,19.16
2019-05-15T15:17:58.411Z,19.26
2019-05-15T15:20:28.582Z,19.28
2019-05-15T15:22:58.794Z,18.57
2019-05-15T15:25:31.102Z,18.13
2019-05-15T15:28:00.348Z,17.89
2019-05-15T15:30:30.028Z,17.65
2019-05-15T15:32:59.752Z,17.54
2019-05-15T15:35:29.006Z,17.69
2019-05-15T15:37:58.241Z,17.79
2019-05-15T15:40:28.262Z,17.71
2019-05-15T15:42:58.127Z,17.60
2019-05-15T15:45:28.351Z,17.52
2019-05-15T15:47:58.740Z,17.49
2019-05-15T15:50:28.834Z,17.38
2019-05-15T15:52:59.369Z,17.34
2019-05-15T15:55:29.193Z,17.57
2019-05-15T15:57:59.309Z,17.84
2019-05-15T16:00:28.942Z,18.05
2019-05-15T16:02:58.660Z,18.14
2019-05-15T16:05:29.103Z,18.19
2019-05-15T16:07:59.174Z,18.11
2019-05-15T16:10:28.851Z,17.98
2019-05-15T16:12:58.338Z,17.87
2019-05-15T16:15:29.036Z,17.96
2019-05-15T16:17:59.443Z,17.83
2019-05-15T16:20:28.887Z,17.81
2019-05-15T16:22:59.179Z,17.79
2019-05-15T16:25:28.961Z,17.57
2019-05-15T16:27:58.607Z,17.58
2019-05-15T16:30:28.283Z,17.46
2019-05-15T16:32:58.511Z,17.52
2019-05-15T16:35:28.998Z,17.55
2019-05-15T16:37:58.538Z,17.45
2019-05-15T16:40:28.756Z,17.27
2019-05-15T16:42:58.287Z,17.20
2019-05-15T16:45:28.877Z,17.21
2019-05-15T16:47:58.734Z,17.15
2019-05-15T16:50:28.633Z,17.12
2019-05-15T16:52:58.523Z,17.13
2019-05-15T16:55:28.590Z,16.95
2019-05-15T16:57:58.635Z,16.78
2019-05-15T17:00:29.251Z,16.80
2019-05-15T17:03:09.296Z,16.64
2019-05-15T17:05:29.605Z,16.58
2019-05-15T17:07:58.879Z,16.68
2019-05-15T17:10:28.316Z,16.62
2019-05-15T17:12:58.281Z,16.50
2019-05-15T17:15:28.168Z,16.48
2019-05-15T17:17:58.305Z,16.34
2019-05-15T17:20:31.398Z,16.24
2019-05-15T17:23:00.671Z,15.90
2019-05-15T17:25:29.912Z,15.82
2019-05-15T17:27:59.161Z,15.69
2019-05-15T17:30:28.849Z,15.58
2019-05-15T17:32:58.095Z,15.39
2019-05-15T17:35:27.819Z,15.29
2019-05-15T17:37:58.142Z,15.08
2019-05-15T17:40:28.421Z,14.90
2019-05-15T17:42:58.597Z,14.83
2019-05-15T17:45:28.947Z,14.76
2019-05-15T17:47:58.559Z,14.54
2019-05-15T17:50:28.410Z,14.43
2019-05-15T17:52:58.632Z,14.30
2019-05-15T17:55:28.237Z,14.25
2019-05-15T17:58:00.786Z,14.12
2019-05-15T18:00:28.708Z,13.76
2019-05-15T18:02:58.036Z,13.59
2019-05-15T18:05:28.256Z,13.50
2019-05-15T18:07:58.394Z,13.60
2019-05-15T18:10:28.160Z,13.56
2019-05-15T18:12:58.608Z,13.57
2019-05-15T18:15:28.056Z,13.53
2019-05-15T18:17:59.400Z,13.56
2019-05-15T18:20:29.603Z,13.55
2019-05-15T18:22:59.441Z,13.50
2019-05-15T18:25:29.017Z,13.54
2019-05-15T18:27:59.226Z,13.47
2019-05-15T18:30:28.753Z,13.31
2019-05-15T18:32:58.935Z,13.27
2019-05-15T18:35:29.536Z,13.19
2019-05-15T18:37:59.344Z,13.29
2019-05-15T18:40:28.581Z,13.21
2019-05-15T18:42:59.196Z,13.18
2019-05-15T18:45:29.219Z,13.16
2019-05-15T18:47:58.986Z,13.11
2019-05-15T18:50:28.628Z,13.15
2019-05-15T18:52:58.584Z,13.12
2019-05-15T18:55:28.081Z,13.03
2019-05-15T18:57:58.390Z,13.08
2019-05-15T19:00:29.515Z,13.05
2019-05-15T19:02:59.446Z,12.62
2019-05-15T19:05:29.996Z,12.73
2019-05-15T19:07:59.313Z,12.74
2019-05-15T19:10:28.642Z,12.83
2019-05-15T19:12:58.329Z,12.97
2019-05-15T19:15:28.798Z,12.78
2019-05-15T19:17:59.012Z,12.75
2019-05-15T19:20:28.332Z,12.67
2019-05-15T19:22:58.889Z,12.63
2019-05-15T19:25:28.770Z,12.54
2019-05-15T19:27:58.171Z,12.44
2019-05-15T19:30:28.671Z,12.42
2019-05-15T19:32:58.669Z,12.34
2019-05-15T19:35:28.298Z,12.34
2019-05-15T19:37:58.471Z,12.46
2019-05-15T19:40:28.664Z,12.37
2019-05-15T19:42:59.137Z,11.99
2019-05-15T19:45:28.954Z,11.79
2019-05-15T19:47:58.901Z,11.82
2019-05-15T19:50:29.024Z,11.99
2019-05-15T19:52:59.113Z,11.79
2019-05-15T19:55:28.780Z,11.89
2019-05-15T19:57:58.758Z,12.03
2019-05-15T20:00:28.774Z,11.98
2019-05-15T20:02:58.768Z,12.09
2019-05-15T20:05:29.359Z,12.12
2019-05-15T20:07:59.079Z,12.14
2019-05-15T20:10:29.331Z,12.04
2019-05-15T20:12:59.699Z,11.97
2019-05-15T20:15:29.302Z,11.79
2019-05-15T20:17:58.553Z,11.61
2019-05-15T20:20:28.615Z,11.46
2019-05-15T20:22:59.934Z,11.30
2019-05-15T20:25:29.212Z,11.13
2019-05-15T20:27:58.460Z,11.04
2019-05-15T20:30:28.598Z,11.00
2019-05-15T20:32:58.533Z,11.29
2019-05-15T20:35:28.456Z,11.24
2019-05-15T20:37:58.807Z,11.19
2019-05-15T20:40:28.054Z,11.07
2019-05-15T20:42:59.166Z,11.09
2019-05-15T20:45:29.223Z,11.21
2019-05-15T20:47:59.231Z,11.32
2019-05-15T20:50:28.608Z,11.18
2019-05-15T20:52:58.791Z,11.02
2019-05-15T20:55:28.645Z,10.88
2019-05-15T20:57:58.588Z,10.88
2019-05-15T21:00:28.334Z,11.06
2019-05-15T21:02:57.937Z,11.13
2019-05-15T21:05:27.838Z,11.28
2019-05-15T21:07:57.663Z,11.51
2019-05-15T21:10:27.150Z,11.61
2019-05-15T21:12:59.155Z,11.73
2019-05-15T21:15:28.177Z,11.82
2019-05-15T21:18:07.435Z,11.82
2019-05-15T21:20:28.788Z,11.88
2019-05-15T21:23:01.103Z,11.77
2019-05-15T21:25:29.304Z,11.53
2019-05-15T21:27:58.965Z,11.53
2019-05-15T21:30:29.528Z,11.75
2019-05-15T21:32:59.233Z,11.74
2019-05-15T21:35:30.583Z,11.73
2019-05-15T21:37:59.430Z,11.65
2019-05-15T21:40:28.982Z,11.40
2019-05-15T21:42:58.257Z,11.55
2019-05-15T21:45:28.979Z,11.33
2019-05-15T21:47:58.787Z,11.17
2019-05-15T21:50:29.228Z,11.07
2019-05-15T21:52:58.516Z,10.91
2019-05-15T21:55:28.978Z,10.88
2019-05-15T21:58:00.003Z,11.03
2019-05-15T22:00:34.806Z,11.35
2019-05-15T22:03:04.253Z,11.34
2019-05-15T22:05:33.510Z,11.48
2019-05-15T22:08:05.217Z,11.43
2019-05-15T22:10:34.528Z,11.41
2019-05-15T22:13:04.264Z,11.41
2019-05-15T22:15:34.539Z,11.33
2019-05-15T22:18:03.891Z,11.38
2019-05-15T22:20:33.238Z,11.42
2019-05-15T22:23:02.681Z,11.42
2019-05-15T22:25:31.933Z,11.31
2019-05-15T22:28:01.779Z,11.16
2019-05-15T22:30:31.065Z,11.28
2019-05-15T22:33:00.317Z,11.30
2019-05-15T22:35:29.783Z,11.25
2019-05-15T22:37:59.259Z,11.28
2019-05-15T22:40:29.132Z,11.27
2019-05-15T22:42:59.173Z,11.14
2019-05-15T22:45:29.460Z,11.20
2019-05-15T22:47:58.825Z,11.07
2019-05-15T22:50:28.354Z,10.67
2019-05-15T22:52:58.749Z,10.27
2019-05-15T22:55:29.040Z,10.02
2019-05-15T22:57:59.901Z,9.91
2019-05-15T23:00:29.516Z,10.01
2019-05-15T23:02:58.785Z,10.05
2019-05-15T23:05:31.611Z,10.36
2019-05-15T23:07:59.208Z,10.57
2019-05-15T23:10:31.134Z,10.65
2019-05-15T23:13:00.367Z,10.62
2019-05-15T23:15:30.232Z,10.66
2019-05-15T23:17:59.477Z,10.71
2019-05-15T23:20:28.776Z,10.86
2019-05-15T23:22:58.606Z,10.82
2019-05-15T23:25:29.009Z,10.89
2019-05-15T23:27:58.584Z,10.83
2019-05-15T23:30:28.860Z,10.76
2019-05-15T23:32:58.576Z,10.84
2019-05-15T23:35:35.645Z,10.76
2019-05-15T23:37:58.741Z,10.80
2019-05-15T23:40:28.785Z,10.78
2019-05-15T23:42:58.840Z,10.84
2019-05-15T23:45:28.928Z,10.79
2019-05-15T23:47:58.378Z,10.74
2019-05-15T23:50:28.870Z,10.79
2019-05-15T23:52:58.592Z,10.74
2019-05-15T23:55:28.450Z,10.74
2019-05-15T23:57:58.582Z,10.64
